createdAt,value
2017-05-25T00:00:12.983Z,1038.95
2017-05-25T00:01:12.976Z,1038.99
2017-05-25T00:02:12.969Z,1039.02
2017-05-25T00:03:12.962Z,1039.02
2017-05-25T00:04:12.955Z,1039.05
2017-05-25T00:05:12.947Z,1039.02
2017-05-25T00:06:12.941Z,1039.02
2017-05-25T00:07:12.932Z,1038.98
2017-05-25T00:08:12.926Z,1038.96
2017-05-25T00:09:12.918Z,1038.98
2017-05-25T00:10:12.910Z,1038.99
2017-05-25T00:11:12.943Z,1038.98
2017-05-25T00:12:12.894Z,1038.97
2017-05-25T00:13:12.888Z,1039.02
2017-05-25T00:14:12.880Z,1039
2017-05-25T00:15:12.872Z,1039.01
2017-05-25T00:16:12.865Z,1039.02
2017-05-25T00:17:12.858Z,1039
2017-05-25T00:18:12.849Z,1039.03
2017-05-25T00:19:12.843Z,1039.04
2017-05-25T00:20:12.835Z,1038.99
2017-05-25T00:21:12.827Z,1038.97
2017-05-25T00:22:12.819Z,1038.97
2017-05-25T00:23:12.813Z,1038.98
2017-05-25T00:24:12.804Z,1038.97
2017-05-25T00:25:12.796Z,1038.98
2017-05-25T00:26:12.790Z,1039
2017-05-25T00:27:12.781Z,1039
2017-05-25T00:28:12.775Z,1039.02
2017-05-25T00:29:12.768Z,1039.01
2017-05-25T00:30:12.759Z,1039.01
2017-05-25T00:31:12.751Z,1039.05
2017-05-25T00:32:12.744Z,1039.06
2017-05-25T00:33:12.735Z,1039.02
2017-05-25T00:34:12.728Z,1039.01
2017-05-25T00:35:12.721Z,1039.02
2017-05-25T00:36:12.712Z,1039.02
2017-05-25T00:37:12.705Z,1039.01
2017-05-25T00:38:12.698Z,1038.98
2017-05-25T00:39:12.690Z,1038.96
2017-05-25T00:40:12.681Z,1038.96
2017-05-25T00:41:12.674Z,1038.94
2017-05-25T00:42:12.667Z,1038.94
2017-05-25T00:43:12.660Z,1038.92
2017-05-25T00:44:12.652Z,1038.94
2017-05-25T00:45:12.644Z,1038.9
2017-05-25T00:46:12.638Z,1038.93
2017-05-25T00:47:12.628Z,1038.93
2017-05-25T00:48:12.622Z,1038.92
2017-05-25T00:49:12.864Z,1038.94
2017-05-25T00:50:12.605Z,1038.95
2017-05-25T00:51:12.597Z,1039
2017-05-25T00:52:12.590Z,1039.04
2017-05-25T00:53:12.582Z,1039.01
2017-05-25T00:54:12.874Z,1039.03
2017-05-25T00:55:12.566Z,1039.01
2017-05-25T00:56:12.558Z,1039.01
2017-05-25T00:57:12.551Z,1039
2017-05-25T00:58:12.544Z,1038.99
2017-05-25T00:59:12.785Z,1039.04
2017-05-25T01:00:12.527Z,1039.02
2017-05-25T01:01:12.519Z,1039
2017-05-25T01:02:12.511Z,1039.04
2017-05-25T01:03:12.502Z,1039.02
2017-05-25T01:04:12.745Z,1039.06
2017-05-25T01:05:12.486Z,1039.06
2017-05-25T01:06:12.479Z,1038.99
2017-05-25T01:07:12.470Z,1039.03
2017-05-25T01:08:12.463Z,1039.04
2017-05-25T01:09:12.755Z,1039.08
2017-05-25T01:10:12.448Z,1039.12
2017-05-25T01:11:12.439Z,1039.13
2017-05-25T01:12:12.432Z,1039.13
2017-05-25T01:13:12.424Z,1039.15
2017-05-25T01:14:12.665Z,1039.17
2017-05-25T01:15:12.408Z,1039.18
2017-05-25T01:16:12.400Z,1039.16
2017-05-25T01:17:12.392Z,1039.18
2017-05-25T01:18:12.384Z,1039.16
2017-05-25T01:19:12.677Z,1039.19
2017-05-25T01:20:12.367Z,1039.2
2017-05-25T01:21:12.360Z,1039.2
2017-05-25T01:22:12.352Z,1039.25
2017-05-25T01:23:12.345Z,1039.24
2017-05-25T01:24:12.585Z,1039.23
2017-05-25T01:25:12.328Z,1039.27
2017-05-25T01:26:12.319Z,1039.26
2017-05-25T01:27:12.311Z,1039.26
2017-05-25T01:28:12.306Z,1039.19
2017-05-25T01:29:12.545Z,1039.23
2017-05-25T01:30:12.288Z,1039.18
2017-05-25T01:31:12.279Z,1039.14
2017-05-25T01:32:12.271Z,1039.18
2017-05-25T01:33:12.264Z,1039.19
2017-05-25T01:34:12.506Z,1039.19
2017-05-25T01:35:12.246Z,1039.21
2017-05-25T01:36:12.240Z,1039.21
2017-05-25T01:37:12.231Z,1039.16
2017-05-25T01:38:12.222Z,1039.16
2017-05-25T01:39:12.465Z,1039.19
2017-05-25T01:40:12.206Z,1039.15
2017-05-25T01:41:12.198Z,1039.14
2017-05-25T01:42:12.189Z,1039.18
2017-05-25T01:43:12.183Z,1039.17
2017-05-25T01:44:12.474Z,1039.18
2017-05-25T01:45:12.166Z,1039.19
2017-05-25T01:46:12.157Z,1039.2
2017-05-25T01:47:12.149Z,1039.2
2017-05-25T01:48:12.141Z,1039.25
2017-05-25T01:49:12.383Z,1039.24
2017-05-25T01:50:12.124Z,1039.28
2017-05-25T01:51:12.116Z,1039.29
2017-05-25T01:52:12.107Z,1039.24
2017-05-25T01:53:12.099Z,1039.28
2017-05-25T01:54:12.094Z,1039.32
2017-05-25T01:55:12.084Z,1039.27
2017-05-25T01:56:12.074Z,1039.27
2017-05-25T01:57:12.066Z,1039.29
2017-05-25T01:58:12.058Z,1039.27
2017-05-25T01:59:12.051Z,1039.33
2017-05-25T02:00:12.042Z,1039.28
2017-05-25T02:01:12.034Z,1039.33
2017-05-25T02:02:12.025Z,1039.29
2017-05-25T02:03:12.018Z,1039.3
2017-05-25T02:04:12.009Z,1039.31
2017-05-25T02:05:12.000Z,1039.31
2017-05-25T02:06:11.992Z,1039.29
2017-05-25T02:07:11.984Z,1039.28
2017-05-25T02:08:11.979Z,1039.33
2017-05-25T02:09:11.967Z,1039.27
2017-05-25T02:10:11.961Z,1039.31
2017-05-25T02:11:11.950Z,1039.32
2017-05-25T02:12:11.942Z,1039.35
2017-05-25T02:13:11.934Z,1039.32
2017-05-25T02:14:11.926Z,1039.37
2017-05-25T02:15:11.917Z,1039.36
2017-05-25T02:16:11.908Z,1039.34
2017-05-25T02:17:11.900Z,1039.32
2017-05-25T02:18:11.892Z,1039.36
2017-05-25T02:19:11.884Z,1039.36
2017-05-25T02:20:11.876Z,1039.35
2017-05-25T02:21:11.868Z,1039.39
2017-05-25T02:22:11.859Z,1039.38
2017-05-25T02:23:11.851Z,1039.39
2017-05-25T02:24:11.842Z,1039.35
2017-05-25T02:25:11.834Z,1039.39
2017-05-25T02:26:11.825Z,1039.42
2017-05-25T02:27:11.817Z,1039.41
2017-05-25T02:28:11.809Z,1039.41
2017-05-25T02:29:11.799Z,1039.4
2017-05-25T02:30:11.792Z,1039.43
2017-05-25T02:31:11.784Z,1039.41
2017-05-25T02:32:11.776Z,1039.38
2017-05-25T02:33:11.767Z,1039.39
2017-05-25T02:34:11.758Z,1039.39
2017-05-25T02:35:11.749Z,1039.36
2017-05-25T02:36:11.741Z,1039.4
2017-05-25T02:37:11.732Z,1039.38
2017-05-25T02:38:11.724Z,1039.4
2017-05-25T02:39:11.716Z,1039.38
2017-05-25T02:40:11.706Z,1039.37
2017-05-25T02:41:11.698Z,1039.34
2017-05-25T02:42:11.690Z,1039.36
2017-05-25T02:43:11.681Z,1039.35
2017-05-25T02:44:11.673Z,1039.34
2017-05-25T02:45:11.664Z,1039.35
2017-05-25T02:46:11.656Z,1039.36
2017-05-25T02:47:11.648Z,1039.3
2017-05-25T02:48:11.639Z,1039.34
2017-05-25T02:49:11.634Z,1039.33
2017-05-25T02:50:11.622Z,1039.32
2017-05-25T02:51:11.613Z,1039.32
2017-05-25T02:52:11.604Z,1039.26
2017-05-25T02:53:11.596Z,1039.25
2017-05-25T02:54:11.587Z,1039.27
2017-05-25T02:55:11.578Z,1039.25
2017-05-25T02:56:11.570Z,1039.26
2017-05-25T02:57:11.562Z,1039.23
2017-05-25T02:58:11.554Z,1039.24
2017-05-25T02:59:11.544Z,1039.21
2017-05-25T03:00:11.535Z,1039.17
2017-05-25T03:01:11.528Z,1039.22
2017-05-25T03:02:11.518Z,1039.19
2017-05-25T03:03:11.510Z,1039.16
2017-05-25T03:04:11.502Z,1039.14
2017-05-25T03:05:11.494Z,1039.14
2017-05-25T03:06:11.485Z,1039.11
2017-05-25T03:07:11.477Z,1039.13
2017-05-25T03:08:11.468Z,1039.12
2017-05-25T03:09:11.460Z,1039.1
2017-05-25T03:10:11.450Z,1039.05
2017-05-25T03:11:11.442Z,1039.05
2017-05-25T03:12:11.434Z,1039
2017-05-25T03:13:11.425Z,1039.04
2017-05-25T03:14:11.417Z,1039.01
2017-05-25T03:15:11.409Z,1039.01
2017-05-25T03:16:11.401Z,1039.05
2017-05-25T03:17:11.392Z,1039.03
2017-05-25T03:18:11.384Z,1039.07
2017-05-25T03:19:11.375Z,1039.03
2017-05-25T03:20:11.367Z,1039.03
2017-05-25T03:21:11.358Z,1039
2017-05-25T03:22:11.350Z,1038.98
2017-05-25T03:23:11.342Z,1039
2017-05-25T03:24:11.333Z,1038.99
2017-05-25T03:25:11.324Z,1038.95
2017-05-25T03:26:11.316Z,1038.92
2017-05-25T03:27:11.310Z,1038.86
2017-05-25T03:28:11.299Z,1038.82
2017-05-25T03:29:11.291Z,1038.81
2017-05-25T03:30:11.284Z,1038.79
2017-05-25T03:31:11.276Z,1038.76
2017-05-25T03:32:11.267Z,1038.68
2017-05-25T03:33:11.259Z,1038.63
2017-05-25T03:34:11.253Z,1038.59
2017-05-25T03:35:11.242Z,1038.44
2017-05-25T03:36:11.235Z,1038.29
2017-05-25T03:37:11.227Z,1038.19
2017-05-25T03:38:11.222Z,1038.08
2017-05-25T03:39:11.211Z,1037.98
2017-05-25T03:40:11.203Z,1037.81
2017-05-25T03:41:11.196Z,1037.67
2017-05-25T03:42:11.191Z,1037.53
2017-05-25T03:43:11.181Z,1037.44
2017-05-25T03:44:11.175Z,1037.31
2017-05-25T03:45:11.167Z,1037.17
2017-05-25T03:46:11.160Z,1037.04
2017-05-25T03:47:11.153Z,1036.92
2017-05-25T03:48:11.147Z,1036.75
2017-05-25T03:49:11.142Z,1036.64
2017-05-25T03:50:11.131Z,1036.53
2017-05-25T03:51:11.126Z,1036.41
2017-05-25T03:52:11.121Z,1036.29
2017-05-25T03:53:11.116Z,1036.14
2017-05-25T03:54:11.108Z,1036
2017-05-25T03:55:11.103Z,1035.89
2017-05-25T03:56:11.098Z,1035.71
2017-05-25T03:57:11.092Z,1035.58
2017-05-25T03:58:11.087Z,1035.43
2017-05-25T03:59:11.082Z,1035.33
2017-05-25T04:00:11.077Z,1035.23
2017-05-25T04:01:11.071Z,1035.1
2017-05-25T04:02:11.067Z,1034.99
2017-05-25T04:03:11.063Z,1034.86
2017-05-25T04:04:11.057Z,1034.85
2017-05-25T04:05:11.054Z,1034.76
2017-05-25T04:06:11.050Z,1034.69
2017-05-25T04:07:11.046Z,1034.67
2017-05-25T04:08:11.042Z,1034.61
2017-05-25T04:09:11.038Z,1034.61
2017-05-25T04:10:11.035Z,1034.57
2017-05-25T04:11:11.032Z,1034.54
2017-05-25T04:12:11.028Z,1034.45
2017-05-25T04:13:11.027Z,1034.47
2017-05-25T04:14:11.023Z,1034.55
2017-05-25T04:15:11.020Z,1034.65
2017-05-25T04:16:11.017Z,1034.6
2017-05-25T04:17:11.014Z,1034.44
2017-05-25T04:18:11.012Z,1034.37
2017-05-25T04:19:11.009Z,1034.16
2017-05-25T04:20:11.006Z,1034.07
2017-05-25T04:21:11.004Z,1033.83
2017-05-25T04:22:11.002Z,1033.58
2017-05-25T04:23:11.000Z,1033.4
2017-05-25T04:24:10.997Z,1033.19
2017-05-25T04:25:10.995Z,1032.94
2017-05-25T04:26:10.993Z,1032.8
2017-05-25T04:27:10.992Z,1032.63
2017-05-25T04:28:10.991Z,1032.52
2017-05-25T04:29:10.991Z,1032.36
2017-05-25T04:30:10.989Z,1032.26
2017-05-25T04:31:10.989Z,1032.17
2017-05-25T04:32:10.988Z,1032.03
2017-05-25T04:33:10.991Z,1031.94
2017-05-25T04:34:10.989Z,1031.82
2017-05-25T04:35:10.989Z,1031.75
2017-05-25T04:36:10.991Z,1031.68
2017-05-25T04:37:10.991Z,1031.61
2017-05-25T04:38:10.993Z,1031.47
2017-05-25T04:39:10.995Z,1031.37
2017-05-25T04:40:10.995Z,1031.36
2017-05-25T04:41:10.997Z,1031.29
2017-05-25T04:42:11.000Z,1031.26
2017-05-25T04:43:11.002Z,1031.19
2017-05-25T04:44:11.005Z,1031.14
2017-05-25T04:45:11.008Z,1031.11
2017-05-25T04:46:11.011Z,1031.01
2017-05-25T04:47:11.015Z,1030.97
2017-05-25T04:48:11.017Z,1030.91
2017-05-25T04:49:11.022Z,1030.87
2017-05-25T04:50:11.026Z,1030.78
2017-05-25T04:51:11.030Z,1030.73
2017-05-25T04:52:11.034Z,1030.63
2017-05-25T04:53:11.039Z,1030.56
2017-05-25T04:54:11.044Z,1030.53
2017-05-25T04:55:11.050Z,1030.5
2017-05-25T04:56:11.054Z,1030.46
2017-05-25T04:57:11.060Z,1030.44
2017-05-25T04:58:11.066Z,1030.42
2017-05-25T04:59:11.071Z,1030.34
2017-05-25T05:00:11.147Z,1030.38
2017-05-25T05:01:11.084Z,1030.4
2017-05-25T05:02:11.091Z,1030.43
2017-05-25T05:03:11.097Z,1030.38
2017-05-25T05:04:11.103Z,1030.31
2017-05-25T05:05:11.111Z,1030.25
2017-05-25T05:06:11.117Z,1030.2
2017-05-25T05:07:11.124Z,1030.09
2017-05-25T05:08:11.134Z,1030.05
2017-05-25T05:09:11.140Z,1030
2017-05-25T05:10:11.145Z,1029.93
2017-05-25T05:11:11.153Z,1029.9
2017-05-25T05:12:11.162Z,1029.87
2017-05-25T05:13:11.169Z,1029.88
2017-05-25T05:14:11.177Z,1029.85
2017-05-25T05:15:11.435Z,1029.84
2017-05-25T05:16:11.193Z,1029.81
2017-05-25T05:17:11.201Z,1029.75
2017-05-25T05:18:11.210Z,1029.74
2017-05-25T05:19:11.218Z,1029.67
2017-05-25T05:20:11.477Z,1029.59
2017-05-25T05:21:11.235Z,1029.57
2017-05-25T05:22:11.244Z,1029.53
2017-05-25T05:23:11.257Z,1029.53
2017-05-25T05:24:11.262Z,1029.52
2017-05-25T05:25:11.572Z,1029.5
2017-05-25T05:26:11.281Z,1029.5
2017-05-25T05:27:11.291Z,1029.41
2017-05-25T05:28:11.301Z,1029.34
2017-05-25T05:29:11.311Z,1029.25
2017-05-25T05:30:11.570Z,1029.18
2017-05-25T05:31:11.330Z,1029.23
2017-05-25T05:32:11.340Z,1029.18
2017-05-25T05:33:11.351Z,1029.14
2017-05-25T05:34:11.361Z,1029.08
2017-05-25T05:35:11.672Z,1029.1
2017-05-25T05:36:11.381Z,1029.05
2017-05-25T05:37:11.392Z,1029.05
2017-05-25T05:38:11.402Z,1029.1
2017-05-25T05:39:11.412Z,1029.12
2017-05-25T05:40:11.675Z,1029.13
2017-05-25T05:41:11.434Z,1029.17
2017-05-25T05:42:11.445Z,1029.13
2017-05-25T05:43:11.455Z,1029.03
2017-05-25T05:44:11.465Z,1029.1
2017-05-25T05:45:11.728Z,1029.18
2017-05-25T05:46:11.489Z,1029.13
2017-05-25T05:47:11.498Z,1029.07
2017-05-25T05:48:11.511Z,1029.08
2017-05-25T05:49:11.522Z,1029.08
2017-05-25T05:50:11.833Z,1029.03
2017-05-25T05:51:11.543Z,1029.07
2017-05-25T05:52:11.555Z,1029.01
2017-05-25T05:53:11.568Z,1028.9
2017-05-25T05:54:11.577Z,1028.82
2017-05-25T05:55:11.840Z,1028.69
2017-05-25T05:56:11.602Z,1028.6
2017-05-25T05:57:11.614Z,1028.52
2017-05-25T05:58:11.625Z,1028.49
2017-05-25T05:59:11.637Z,1028.37
2017-05-25T06:00:11.900Z,1028.27
2017-05-25T06:01:11.661Z,1028.17
2017-05-25T06:02:11.673Z,1028.2
2017-05-25T06:03:11.686Z,1028.22
2017-05-25T06:04:11.703Z,1028.26
2017-05-25T06:05:12.010Z,1028.26
2017-05-25T06:06:11.723Z,1028.25
2017-05-25T06:07:11.736Z,1028.25
2017-05-25T06:08:11.749Z,1028.16
2017-05-25T06:09:11.762Z,1028.14
2017-05-25T06:10:12.024Z,1028.13
2017-05-25T06:11:11.788Z,1027.9
2017-05-25T06:12:11.799Z,1027.73
2017-05-25T06:13:11.815Z,1027.61
2017-05-25T06:14:11.827Z,1027.56
2017-05-25T06:15:12.142Z,1027.49
2017-05-25T06:16:11.854Z,1027.38
2017-05-25T06:17:11.867Z,1027.34
2017-05-25T06:18:11.884Z,1027.36
2017-05-25T06:19:11.897Z,1027.24
2017-05-25T06:20:11.909Z,1027.18
2017-05-25T06:21:11.924Z,1027.08
2017-05-25T06:22:11.937Z,1027
2017-05-25T06:23:11.951Z,1026.92
2017-05-25T06:24:11.966Z,1026.84
2017-05-25T06:25:11.981Z,1026.76
2017-05-25T06:26:11.996Z,1026.71
2017-05-25T06:27:12.076Z,1026.63
2017-05-25T06:28:12.025Z,1026.67
2017-05-25T06:29:12.041Z,1026.73
2017-05-25T06:30:12.056Z,1026.75
2017-05-25T06:31:12.073Z,1026.66
2017-05-25T06:32:12.086Z,1026.61
2017-05-25T06:33:12.102Z,1026.62
2017-05-25T06:34:12.117Z,1026.53
2017-05-25T06:35:12.133Z,1026.57
2017-05-25T06:36:12.149Z,1026.44
2017-05-25T06:37:12.166Z,1026.37
2017-05-25T06:38:12.189Z,1026.75
2017-05-25T06:39:12.198Z,1026.56
2017-05-25T06:40:12.214Z,1026.36
2017-05-25T06:41:12.231Z,1026.91
2017-05-25T06:42:12.246Z,1026.9
2017-05-25T06:43:12.263Z,1027.77
2017-05-25T06:44:12.279Z,1026.79
2017-05-25T06:45:12.294Z,1027.57
2017-05-25T06:46:12.309Z,1027.18
2017-05-25T06:47:12.326Z,1027.01
2017-05-25T06:48:12.343Z,1026.77
2017-05-25T06:49:12.357Z,1026.6
2017-05-25T06:50:12.372Z,1025.93
2017-05-25T06:51:12.389Z,1027.53
2017-05-25T06:52:12.404Z,1027.26
2017-05-25T06:53:12.420Z,1026.98
2017-05-25T06:54:12.437Z,1026.46
2017-05-25T06:55:12.452Z,1026.77
2017-05-25T06:56:12.467Z,1026.31
2017-05-25T06:57:12.485Z,1028.14
2017-05-25T06:58:12.501Z,1026.91
2017-05-25T06:59:12.517Z,1027.9
2017-05-25T07:00:12.536Z,1027.13
2017-05-25T07:01:12.547Z,1027.23
2017-05-25T07:02:12.565Z,1028.37
2017-05-25T07:03:12.580Z,1027.9
2017-05-25T07:04:12.596Z,1028.23
2017-05-25T07:05:12.614Z,1028.57
2017-05-25T07:06:12.627Z,1030.21
2017-05-25T07:07:12.641Z,1029.24
2017-05-25T07:08:12.655Z,1028.41
2017-05-25T07:09:12.670Z,1027.51
2017-05-25T07:10:12.685Z,1027.08
2017-05-25T07:11:12.699Z,1027.97
2017-05-25T07:12:12.714Z,1026.95
2017-05-25T07:13:12.730Z,1028.31
2017-05-25T07:14:12.744Z,1026.8
2017-05-25T07:15:12.759Z,1027.69
2017-05-25T07:16:12.773Z,1028.96
2017-05-25T07:17:12.789Z,1028.2
2017-05-25T07:18:12.834Z,1026.8
2017-05-25T07:19:12.820Z,1027.9
2017-05-25T07:20:12.833Z,1027.87
2017-05-25T07:21:12.860Z,1029.27
2017-05-25T07:22:12.863Z,1028.38
2017-05-25T07:23:12.877Z,1027.9
2017-05-25T07:24:12.892Z,1027.32
2017-05-25T07:25:12.908Z,1027.01
2017-05-25T07:26:12.921Z,1026.7
2017-05-25T07:27:12.935Z,1025.4
2017-05-25T07:28:12.949Z,1026.49
2017-05-25T07:29:12.965Z,1025.35
2017-05-25T07:30:12.980Z,1025.72
2017-05-25T07:31:12.996Z,1027.47
2017-05-25T07:32:13.012Z,1027.19
2017-05-25T07:33:13.027Z,1026.43
2017-05-25T07:34:13.042Z,1026.41
2017-05-25T07:35:13.059Z,1026.1
2017-05-25T07:36:13.074Z,1026.06
2017-05-25T07:37:13.090Z,1025.91
2017-05-25T07:38:13.107Z,1025.86
2017-05-25T07:39:13.144Z,1025.68
2017-05-25T07:40:13.140Z,1025.99
2017-05-25T07:41:13.157Z,1026.06
2017-05-25T07:42:13.176Z,1025.89
2017-05-25T07:43:13.191Z,1025.99
2017-05-25T07:44:13.207Z,1025.89
2017-05-25T07:45:13.225Z,1025.9
2017-05-25T07:46:13.243Z,1025.86
2017-05-25T07:47:13.259Z,1025.93
2017-05-25T07:48:13.278Z,1025.93
2017-05-25T07:49:13.295Z,1025.93
2017-05-25T07:50:13.312Z,1025.96
2017-05-25T07:51:13.329Z,1025.95
2017-05-25T07:52:13.347Z,1026.07
2017-05-25T07:53:13.365Z,1026.15
2017-05-25T07:54:13.384Z,1026.22
2017-05-25T07:55:13.401Z,1026.33
2017-05-25T07:56:13.419Z,1026.5
2017-05-25T07:57:13.438Z,1026.61
2017-05-25T07:58:13.455Z,1026.62
2017-05-25T07:59:13.473Z,1026.77
2017-05-25T08:00:13.492Z,1026.64
2017-05-25T08:01:13.510Z,1026.57
2017-05-25T08:02:13.527Z,1026.56
2017-05-25T08:03:13.546Z,1026.52
2017-05-25T08:04:13.565Z,1026.5
2017-05-25T08:24:13.907Z,1026.86
2017-05-25T08:25:13.923Z,1027.16
2017-05-25T08:26:13.939Z,1027.4
2017-05-25T08:27:13.955Z,1027.54
2017-05-25T08:28:13.969Z,1027.71
2017-05-25T08:29:13.987Z,1027.99
2017-05-25T08:30:14.004Z,1028.13
2017-05-25T08:31:14.017Z,1028.17
2017-05-25T08:32:14.034Z,1027.93
2017-05-25T08:33:14.050Z,1028.56
2017-05-25T08:34:14.066Z,1028.39
2017-05-25T08:35:14.081Z,1028.34
2017-05-25T08:36:14.096Z,1029.38
2017-05-25T08:37:14.112Z,1029.77
2017-05-25T08:38:14.126Z,1029.88
2017-05-25T08:39:14.442Z,1030.98
2017-05-25T08:40:14.157Z,1031.67
2017-05-25T08:41:14.170Z,1032.39
2017-05-25T08:42:14.184Z,1031.9
2017-05-25T08:43:14.197Z,1031.1
2017-05-25T08:44:14.460Z,1030.44
2017-05-25T08:45:14.222Z,1030.04
2017-05-25T08:46:14.234Z,1030.76
2017-05-25T08:47:14.247Z,1031.68
2017-05-25T08:48:14.260Z,1032.21
2017-05-25T08:49:14.620Z,1032.52
2017-05-25T08:50:14.281Z,1033.04
2017-05-25T08:51:14.297Z,1033.51
2017-05-25T08:52:14.304Z,1033.73
2017-05-25T08:53:14.314Z,1034.06
2017-05-25T08:54:14.575Z,1034.44
2017-05-25T08:55:14.335Z,1034.63
2017-05-25T08:56:14.345Z,1034.92
2017-05-25T08:57:14.354Z,1035.02
2017-05-25T08:58:14.363Z,1035.19
2017-05-25T08:59:14.622Z,1035.38
2017-05-25T09:00:14.380Z,1035.47
2017-05-25T09:01:14.389Z,1035.5
2017-05-25T09:02:14.396Z,1035.42
2017-05-25T09:03:14.403Z,1035.5
2017-05-25T09:04:14.716Z,1035.54
2017-05-25T09:05:14.418Z,1035.53
2017-05-25T09:06:14.424Z,1035.52
2017-05-25T09:07:14.431Z,1035.46
2017-05-25T09:08:14.436Z,1035.53
2017-05-25T09:09:14.692Z,1035.48
2017-05-25T09:10:14.448Z,1035.57
2017-05-25T09:11:14.453Z,1035.63
2017-05-25T09:12:14.458Z,1035.69
2017-05-25T09:13:14.464Z,1035.64
2017-05-25T09:14:14.719Z,1035.52
2017-05-25T09:15:14.472Z,1035.39
2017-05-25T09:16:14.478Z,1035.19
2017-05-25T09:17:14.498Z,1035.06
2017-05-25T09:18:14.487Z,1034.96
2017-05-25T09:19:14.742Z,1034.96
2017-05-25T09:20:14.496Z,1034.87
2017-05-25T09:21:14.500Z,1034.84
2017-05-25T09:22:14.504Z,1034.88
2017-05-25T09:23:14.509Z,1034.86
2017-05-25T09:24:14.764Z,1035.16
2017-05-25T09:25:14.519Z,1035.23
2017-05-25T09:26:14.522Z,1035.23
2017-05-25T09:27:14.526Z,1035.12
2017-05-25T09:28:14.534Z,1035
2017-05-25T09:29:14.785Z,1034.97
2017-05-25T09:30:14.538Z,1035.02
2017-05-25T09:31:14.543Z,1035.16
2017-05-25T09:32:14.547Z,1035.29
2017-05-25T09:33:14.550Z,1035.35
2017-05-25T09:34:14.854Z,1035.44
2017-05-25T09:35:14.558Z,1035.54
2017-05-25T09:36:14.563Z,1035.58
2017-05-25T09:37:14.566Z,1035.65
2017-05-25T09:38:14.570Z,1035.73
2017-05-25T09:39:14.923Z,1035.84
2017-05-25T09:40:14.577Z,1035.83
2017-05-25T09:41:14.580Z,1035.87
2017-05-25T09:42:14.583Z,1035.82
2017-05-25T09:43:14.587Z,1035.78
2017-05-25T09:44:14.892Z,1035.75
2017-05-25T09:45:14.594Z,1035.78
2017-05-25T09:46:14.597Z,1035.78
2017-05-25T09:47:14.600Z,1035.77
2017-05-25T09:48:14.602Z,1035.59
2017-05-25T09:49:14.856Z,1035.5
2017-05-25T09:50:14.609Z,1035.44
2017-05-25T09:51:14.613Z,1035.36
2017-05-25T09:52:14.619Z,1035.24
2017-05-25T09:53:14.619Z,1035.14
2017-05-25T09:54:14.921Z,1035.04
2017-05-25T09:55:14.623Z,1034.86
2017-05-25T09:56:14.632Z,1034.77
2017-05-25T09:57:14.630Z,1034.65
2017-05-25T09:58:14.634Z,1034.59
2017-05-25T09:59:14.887Z,1034.57
2017-05-25T10:00:14.640Z,1034.58
2017-05-25T10:01:14.644Z,1034.48
2017-05-25T10:02:14.648Z,1034.4
2017-05-25T10:03:14.651Z,1034.46
2017-05-25T10:04:14.907Z,1034.56
2017-05-25T10:05:14.659Z,1034.41
2017-05-25T10:06:14.664Z,1034.34
2017-05-25T10:07:14.666Z,1034.31
2017-05-25T10:08:14.671Z,1034.23
2017-05-25T10:09:14.928Z,1034.17
2017-05-25T10:10:14.678Z,1034.08
2017-05-25T10:11:14.684Z,1034.08
2017-05-25T10:12:14.687Z,1034.06
2017-05-25T10:13:14.691Z,1034.26
2017-05-25T10:14:14.996Z,1034.22
2017-05-25T10:15:14.701Z,1034.21
2017-05-25T10:16:14.705Z,1034.17
2017-05-25T10:17:14.709Z,1034.17
2017-05-25T10:18:14.713Z,1034.24
2017-05-25T10:19:15.018Z,1034.39
2017-05-25T10:20:14.722Z,1034.56
2017-05-25T10:21:14.727Z,1034.76
2017-05-25T10:22:14.731Z,1034.81
2017-05-25T10:23:14.737Z,1034.8
2017-05-25T10:24:14.990Z,1034.67
2017-05-25T10:25:14.744Z,1034.6
2017-05-25T10:26:14.749Z,1034.58
2017-05-25T10:27:14.753Z,1034.42
2017-05-25T10:28:14.756Z,1034.32
2017-05-25T10:29:15.010Z,1034.14
2017-05-25T10:30:14.765Z,1034.15
2017-05-25T10:31:14.770Z,1034.23
2017-05-25T10:32:14.774Z,1034.4
2017-05-25T10:33:14.779Z,1034.55
2017-05-25T10:34:15.084Z,1034.65
2017-05-25T10:35:14.786Z,1034.56
2017-05-25T10:36:14.793Z,1034.47
2017-05-25T10:37:14.796Z,1034.46
2017-05-25T10:38:14.803Z,1034.34
2017-05-25T10:39:15.055Z,1034.32
2017-05-25T10:40:14.810Z,1034.33
2017-05-25T10:41:14.814Z,1034.22
2017-05-25T10:42:14.818Z,1034.19
2017-05-25T10:43:14.822Z,1034.11
2017-05-25T10:44:15.127Z,1034.08
2017-05-25T10:45:14.891Z,1033.97
2017-05-25T10:46:14.835Z,1033.91
2017-05-25T10:47:14.839Z,1033.83
2017-05-25T10:48:14.846Z,1033.81
2017-05-25T10:49:14.849Z,1033.86
2017-05-25T10:50:14.853Z,1033.88
2017-05-25T10:51:14.858Z,1033.88
2017-05-25T10:52:14.863Z,1033.86
2017-05-25T10:53:14.868Z,1033.81
2017-05-25T10:54:14.876Z,1033.71
2017-05-25T10:55:14.877Z,1033.7
2017-05-25T10:56:14.882Z,1033.71
2017-05-25T10:57:14.887Z,1033.85
2017-05-25T10:58:14.892Z,1033.99
2017-05-25T10:59:14.897Z,1033.95
2017-05-25T11:00:14.903Z,1034.03
2017-05-25T11:01:14.906Z,1034.02
2017-05-25T11:02:14.912Z,1034.05
2017-05-25T11:03:14.917Z,1033.97
2017-05-25T11:04:14.922Z,1033.92
2017-05-25T11:05:14.926Z,1033.78
2017-05-25T11:06:14.932Z,1033.69
2017-05-25T11:07:14.937Z,1033.76
2017-05-25T11:08:14.941Z,1033.83
2017-05-25T11:09:14.947Z,1033.9
2017-05-25T11:10:14.952Z,1033.89
2017-05-25T11:11:14.957Z,1033.96
2017-05-25T11:12:14.962Z,1033.92
2017-05-25T11:13:14.968Z,1033.81
2017-05-25T11:14:14.972Z,1033.7
2017-05-25T11:15:14.978Z,1033.71
2017-05-25T11:16:14.982Z,1033.74
2017-05-25T11:17:14.988Z,1033.75
2017-05-25T11:18:14.994Z,1033.76
2017-05-25T11:19:14.998Z,1033.91
2017-05-25T11:20:15.003Z,1033.87
2017-05-25T11:21:15.009Z,1033.96
2017-05-25T11:22:15.019Z,1034.08
2017-05-25T11:23:15.019Z,1034.08
2017-05-25T11:24:15.024Z,1034.18
2017-05-25T11:25:15.029Z,1034.18
2017-05-25T11:26:15.034Z,1034.25
2017-05-25T11:27:15.038Z,1034.24
2017-05-25T11:28:15.043Z,1034.31
2017-05-25T11:29:15.049Z,1034.25
2017-05-25T11:30:15.052Z,1034.25
2017-05-25T11:31:15.057Z,1034.14
2017-05-25T11:32:15.063Z,1034.09
2017-05-25T11:33:15.068Z,1034.1
2017-05-25T11:34:15.071Z,1034.06
2017-05-25T11:35:15.076Z,1034.01
2017-05-25T11:36:15.081Z,1034
2017-05-25T11:37:15.086Z,1034.01
2017-05-25T11:38:15.090Z,1033.94
2017-05-25T11:39:15.094Z,1033.89
2017-05-25T11:40:15.099Z,1033.96
2017-05-25T11:41:15.103Z,1034.11
2017-05-25T11:42:15.108Z,1034.22
2017-05-25T11:43:15.113Z,1034.39
2017-05-25T11:44:15.117Z,1034.43
2017-05-25T11:45:15.122Z,1034.49
2017-05-25T11:46:15.126Z,1034.55
2017-05-25T11:47:15.132Z,1034.54
2017-05-25T11:48:15.136Z,1034.45
2017-05-25T11:49:15.140Z,1034.55
2017-05-25T11:50:15.145Z,1034.55
2017-05-25T11:51:15.149Z,1034.59
2017-05-25T11:52:15.153Z,1034.55
2017-05-25T11:53:15.158Z,1034.53
2017-05-25T11:54:15.162Z,1034.52
2017-05-25T11:55:15.167Z,1034.51
2017-05-25T11:56:15.170Z,1034.53
2017-05-25T11:57:15.174Z,1034.5
2017-05-25T11:58:15.179Z,1034.61
2017-05-25T11:59:15.183Z,1034.65
2017-05-25T12:00:15.186Z,1034.62
2017-05-25T12:01:15.192Z,1034.76
2017-05-25T12:02:15.196Z,1034.89
2017-05-25T12:03:15.200Z,1035.04
2017-05-25T12:04:15.203Z,1035.06
2017-05-25T12:05:15.207Z,1035.11
2017-05-25T12:06:15.211Z,1035.11
2017-05-25T12:07:15.216Z,1035.14
2017-05-25T12:08:15.218Z,1035.25
2017-05-25T12:09:15.222Z,1035.22
2017-05-25T12:10:15.225Z,1035.22
2017-05-25T12:11:15.228Z,1035.24
2017-05-25T12:12:15.232Z,1035.18
2017-05-25T12:13:15.236Z,1035.15
2017-05-25T12:14:15.239Z,1035.11
2017-05-25T12:15:15.243Z,1035.19
2017-05-25T12:16:15.246Z,1035.18
2017-05-25T12:17:15.250Z,1035.2
2017-05-25T12:18:15.253Z,1035.23
2017-05-25T12:19:15.266Z,1035.22
2017-05-25T12:20:15.260Z,1035.27
2017-05-25T12:21:15.263Z,1035.21
2017-05-25T12:22:15.266Z,1035.13
2017-05-25T12:23:15.269Z,1035.21
2017-05-25T12:24:15.271Z,1035.14
2017-05-25T12:25:15.276Z,1035.13
2017-05-25T12:26:15.278Z,1035.07
2017-05-25T12:27:15.282Z,1035.05